Consulta les dades en temps real de l'estació municipal de Aiguafreda
| Hora UTC | 18:10 |
|---|---|
| Temperatura | 26.1 ºC |
| Sòl 15 cm | 25.2 ºC |
| Humitat | 54.5 % |
| Pressió | 1020.9 hPa |
| Pluja | 0.0 mm |
| Velocitat vent | 4.8 km/h |
| Direcció vent | SSE |
| Temperatura (ºC) | Humitat (%) | Pressió (hPa) | Velocitat vent (km/h) | Precipitació (mm) | |||||||||||||
|---|---|---|---|---|---|---|---|---|---|---|---|---|---|---|---|---|---|
| Hora UTC | Aire | Sòl 15 cm | Humitat | Pressió | Vel. | Dir. | Vel. Max | Dir. | Intent. màx 5 min. | ||||||||
| 00:05 | 18.6 | 17.3 | 87.5 | 1020.8 | 0.0 | NNE | 0.0 | NNW | 0.0 | ||||||||
| 00:10 | 18.5 | 17.3 | 87.6 | 1020.8 | 0.0 | NNE | 0.0 | NW | 0.0 | ||||||||
| 00:15 | 18.5 | 17.3 | 87.6 | 1020.8 | 0.0 | NNE | 0.0 | NNW | 0.0 | ||||||||
| 00:20 | 18.5 | 17.3 | 87.6 | 1020.8 | 0.0 | NNE | 0.0 | N | 0.0 | ||||||||
| 00:25 | 18.5 | 17.2 | 87.7 | 1020.8 | 0.0 | NNE | 0.0 | NW | 0.0 | ||||||||
| 00:30 | 18.4 | 17.2 | 87.7 | 1020.7 | 0.0 | NNE | 0.0 | NW | 0.0 | ||||||||
| 00:35 | 18.4 | 17.1 | 87.8 | 1020.8 | 0.0 | NNE | 0.0 | ENE | 0.0 | ||||||||
| 00:40 | 18.4 | 17.1 | 87.9 | 1020.8 | 0.0 | NNE | 0.0 | NNW | 0.0 | ||||||||
| 00:45 | 18.3 | 17.0 | 87.9 | 1020.8 | 0.0 | NNE | 0.0 | NNW | 0.0 | ||||||||
| 00:50 | 18.3 | 16.9 | 88.1 | 1020.8 | 0.0 | NNE | 0.0 | NW | 0.0 | ||||||||
| 00:55 | 18.2 | 16.9 | 88.3 | 1020.8 | 0.0 | NNE | 0.0 | NW | 0.0 | ||||||||
| 01:00 | 18.1 | 16.8 | 88.4 | 1020.8 | 0.0 | NNE | 0.0 | NW | 0.0 | ||||||||
| 01:05 | 18.1 | 16.9 | 88.6 | 1020.8 | 0.0 | NNE | 0.0 | SSE | 0.0 | ||||||||
| 01:10 | 18.1 | 16.8 | 88.6 | 1020.8 | 0.0 | NNE | 0.0 | ESE | 0.0 | ||||||||
| 01:15 | 18.1 | 16.9 | 88.7 | 1020.8 | 0.0 | NNE | 0.0 | SSE | 0.0 | ||||||||
| 01:20 | 18.1 | 16.9 | 88.7 | 1020.7 | 0.0 | NNE | 0.0 | SW | 0.0 | ||||||||
| 01:25 | 18.1 | 16.9 | 88.7 | 1020.6 | 0.0 | NNE | 0.0 | SW | 0.0 | ||||||||
| 01:30 | 18.0 | 16.8 | 88.6 | 1020.5 | 0.0 | NNE | 0.0 | NW | 0.0 | ||||||||
| 01:35 | 18.0 | 16.8 | 88.7 | 1020.5 | 0.0 | NNE | 0.0 | NW | 0.0 | ||||||||
| 01:40 | 17.9 | 16.8 | 89.0 | 1020.4 | 0.0 | NNE | 0.0 | NW | 0.0 | ||||||||
| 01:45 | 18.0 | 16.8 | 89.2 | 1020.5 | 0.0 | NNE | 0.0 | NW | 0.0 | ||||||||
| 01:50 | 18.0 | 17.0 | 89.2 | 1020.6 | 0.7 | NNW | 8.8 | 0.0 | |||||||||
| 01:55 | 18.0 | 17.0 | 89.2 | 1020.5 | 0.0 | NNE | 0.0 | NE | 0.0 | ||||||||
| 02:00 | 18.0 | 17.0 | 89.0 | 1020.6 | 0.2 | SE | 6.1 | SSE | 0.0 | ||||||||
| 02:05 | 18.1 | 17.0 | 89.3 | 1020.5 | 0.3 | SE | 6.1 | SSE | 0.0 | ||||||||
| 02:10 | 18.1 | 17.0 | 88.9 | 1020.5 | 0.0 | NNE | 0.0 | SE | 0.0 | ||||||||
| 02:15 | 18.1 | 16.9 | 88.7 | 1020.6 | 0.0 | NNE | 0.0 | SW | 0.0 | ||||||||
| 02:20 | 18.1 | 16.9 | 88.6 | 1020.5 | 0.0 | NNE | 0.0 | S | 0.0 | ||||||||
| 02:25 | 18.0 | 16.8 | 88.6 | 1020.5 | 0.0 | NNE | 0.0 | S | 0.0 | ||||||||
| 02:30 | 17.9 | 16.7 | 88.9 | 1020.5 | 0.0 | NNE | 0.0 | S | 0.0 | ||||||||
| 02:35 | 17.9 | 16.6 | 89.1 | 1020.6 | 0.0 | NNE | 0.0 | S | 0.0 | ||||||||
| 02:40 | 17.8 | 16.5 | 89.5 | 1020.6 | 0.0 | NNE | 0.0 | W | 0.0 | ||||||||
| 02:45 | 17.8 | 16.6 | 89.6 | 1020.6 | 0.0 | NNE | 0.0 | WSW | 0.0 | ||||||||
| 02:50 | 17.8 | 16.6 | 89.6 | 1020.6 | 0.0 | NNE | 0.0 | NNW | 0.0 | ||||||||
| 02:55 | 17.8 | 16.5 | 89.6 | 1020.6 | 0.0 | NNE | 0.0 | SSE | 0.0 | ||||||||
| 03:00 | 17.7 | 16.4 | 89.8 | 1020.7 | 0.0 | NNE | 0.0 | SSE | 0.0 | ||||||||
| 03:05 | 17.7 | 16.3 | 89.9 | 1020.6 | 0.0 | NNE | 0.0 | SSE | 0.0 | ||||||||
| 03:10 | 17.6 | 16.3 | 90.1 | 1020.6 | 0.0 | NNE | 0.0 | NE | 0.0 | ||||||||
| 03:15 | 17.6 | 16.3 | 90.3 | 1020.7 | 0.0 | NNE | 0.0 | W | 0.0 | ||||||||
| 03:20 | 17.6 | 16.2 | 90.2 | 1020.6 | 0.0 | NNE | 0.0 | W | 0.0 | ||||||||
| 03:25 | 17.6 | 16.2 | 90.3 | 1020.6 | 0.0 | NNE | 0.0 | SSE | 0.0 | ||||||||
| 03:30 | 17.5 | 16.2 | 90.4 | 1020.7 | 0.0 | NNE | 0.0 | SE | 0.0 | ||||||||
| 03:35 | 17.5 | 16.1 | 90.4 | 1020.7 | 0.0 | NNE | 0.0 | SE | 0.0 | ||||||||
| 03:40 | 17.5 | 16.1 | 90.4 | 1020.7 | 0.0 | NNE | 0.0 | SE | 0.0 | ||||||||
| 03:45 | 17.4 | 16.0 | 90.6 | 1020.6 | 0.0 | NNE | 0.0 | SE | 0.0 | ||||||||
| 03:50 | 17.4 | 16.1 | 90.8 | 1020.6 | 0.0 | NNE | 0.0 | SE | 0.0 | ||||||||
| 03:55 | 17.4 | 16.1 | 90.7 | 1020.6 | 0.0 | NNE | 0.0 | SE | 0.0 | ||||||||
| 04:00 | 17.4 | 16.0 | 90.7 | 1020.6 | 0.0 | NNE | 0.0 | SE | 0.0 | ||||||||
| 04:05 | 17.4 | 16.0 | 90.8 | 1020.6 | 0.0 | NNE | 0.0 | WNW | 0.0 | ||||||||
| 04:10 | 17.4 | 16.0 | 91.0 | 1020.5 | 0.0 | NNE | 0.0 | NNW | 0.0 | ||||||||
| 04:15 | 17.4 | 16.0 | 90.9 | 1020.5 | 0.0 | NNE | 0.0 | NW | 0.0 | ||||||||
| 04:20 | 17.3 | 16.1 | 90.8 | 1020.5 | 0.0 | NNE | 0.0 | SE | 0.0 | ||||||||
| 04:25 | 17.3 | 15.9 | 90.7 | 1020.5 | 0.0 | NNE | 0.0 | ESE | 0.0 | ||||||||
| 04:30 | 17.3 | 15.8 | 90.8 | 1020.4 | 0.0 | NNE | 0.0 | ESE | 0.0 | ||||||||
| 04:35 | 17.2 | 15.8 | 91.0 | 1020.4 | 0.0 | NNE | 0.0 | ESE | 0.0 | ||||||||
| 04:40 | 17.2 | 15.8 | 91.3 | 1020.4 | 0.0 | NNE | 0.0 | N | 0.0 | ||||||||
| 04:45 | 17.2 | 15.7 | 91.4 | 1020.4 | 0.0 | NNE | 0.0 | N | 0.0 | ||||||||
| 04:50 | 17.2 | 15.7 | 91.5 | 1020.4 | 0.0 | NNE | 0.0 | N | 0.0 | ||||||||
| 04:55 | 17.1 | 15.7 | 91.5 | 1020.5 | 0.0 | NNE | 0.0 | SSW | 0.0 | ||||||||
| 05:00 | 17.1 | 15.7 | 91.5 | 1020.5 | 0.0 | NNE | 0.0 | SSW | 0.0 | ||||||||
| 05:05 | 17.1 | 15.7 | 91.6 | 1020.6 | 0.0 | NNE | 0.0 | S | 0.0 | ||||||||
| 05:10 | 17.1 | 15.7 | 91.6 | 1020.6 | 0.0 | NNE | 0.0 | S | 0.0 | ||||||||
| 05:15 | 17.1 | 15.6 | 91.7 | 1020.6 | 0.0 | NNE | 0.0 | E | 0.0 | ||||||||
| 05:20 | 17.1 | 15.6 | 91.8 | 1020.6 | 0.0 | NNE | 0.0 | E | 0.0 | ||||||||
| 05:25 | 17.1 | 15.7 | 91.9 | 1020.7 | 0.0 | NNE | 0.0 | NNW | 0.0 | ||||||||
| 05:30 | 17.1 | 15.7 | 91.8 | 1020.7 | 0.0 | NNE | 0.0 | NNW | 0.0 | ||||||||
| 05:35 | 17.2 | 15.7 | 91.9 | 1020.7 | 0.0 | NNE | 0.0 | NNW | 0.0 | ||||||||
| 05:40 | 17.2 | 15.8 | 91.9 | 1020.7 | 0.0 | NNE | 0.0 | NNW | 0.0 | ||||||||
| 05:45 | 17.2 | 15.9 | 92.0 | 1020.8 | 0.0 | NNE | 0.0 | NNW | 0.0 | ||||||||
| 05:50 | 17.3 | 16.0 | 92.2 | 1020.8 | 0.0 | NNE | 0.0 | SE | 0.0 | ||||||||
| 05:55 | 17.4 | 16.1 | 92.2 | 1020.8 | 0.0 | NNE | 0.0 | SE | 0.0 | ||||||||
| 06:00 | 17.5 | 16.2 | 92.2 | 1020.9 | 0.0 | NNE | 0.0 | SE | 0.0 | ||||||||
| 06:05 | 17.6 | 16.4 | 92.2 | 1020.9 | 0.0 | NNE | 0.0 | NE | 0.0 | ||||||||
| 06:10 | 17.7 | 16.6 | 92.1 | 1020.9 | 0.0 | NNE | 0.0 | ESE | 0.0 | ||||||||
| 06:15 | 17.8 | 16.7 | 92.0 | 1021.0 | 0.0 | NNE | 0.0 | ESE | 0.0 | ||||||||
| 06:20 | 17.9 | 16.8 | 91.9 | 1021.0 | 0.0 | NNE | 0.0 | ESE | 0.0 | ||||||||
| 06:25 | 18.1 | 17.0 | 91.7 | 1021.0 | 0.0 | NNE | 0.0 | ENE | 0.0 | ||||||||
| 06:30 | 18.2 | 17.3 | 91.3 | 1021.1 | 0.0 | NNE | 0.0 | SSW | 0.0 | ||||||||
| 06:35 | 18.4 | 17.6 | 90.8 | 1021.1 | 0.0 | NNE | 0.0 | ESE | 0.0 | ||||||||
| 06:40 | 18.7 | 17.8 | 90.0 | 1021.2 | 0.0 | NNE | 0.0 | SSE | 0.0 | ||||||||
| 06:45 | 18.9 | 18.0 | 89.1 | 1021.3 | 0.0 | NNE | 0.0 | SSE | 0.0 | ||||||||
| 06:50 | 19.2 | 18.3 | 88.3 | 1021.4 | 0.0 | NNE | 0.0 | SSE | 0.0 | ||||||||
| 06:55 | 19.5 | 18.6 | 87.2 | 1021.4 | 0.0 | NNE | 0.0 | S | 0.0 | ||||||||
| 07:00 | 19.8 | 18.9 | 86.0 | 1021.4 | 0.0 | NNE | 0.0 | SSE | 0.0 | ||||||||
| 07:05 | 20.1 | 19.3 | 84.7 | 1021.4 | 0.0 | NE | 3.4 | NE | 0.0 | ||||||||
| 07:10 | 20.5 | 19.8 | 82.8 | 1021.4 | 0.0 | NNE | 0.0 | WNW | 0.0 | ||||||||
| 07:15 | 20.8 | 20.0 | 81.4 | 1021.3 | 0.0 | NNE | 0.0 | NNE | 0.0 | ||||||||
| 07:20 | 21.1 | 20.2 | 80.3 | 1021.3 | 0.0 | NNE | 0.0 | N | 0.0 | ||||||||
| 07:25 | 21.4 | 20.5 | 79.2 | 1021.2 | 0.0 | NNE | 0.0 | NNE | 0.0 | ||||||||
| 07:30 | 21.7 | 20.8 | 78.0 | 1021.3 | 0.0 | NNE | 0.0 | E | 0.0 | ||||||||
| 07:35 | 22.0 | 21.1 | 76.7 | 1021.3 | 0.0 | NNE | 0.0 | E | 0.0 | ||||||||
| 07:40 | 22.5 | 21.4 | 74.5 | 1021.3 | 3.0 | ENE | 14.2 | NNE | 0.0 | ||||||||
| 07:45 | 23.0 | 21.7 | 71.7 | 1021.3 | 1.8 | ENE | 8.8 | ENE | 0.0 | ||||||||
| 07:50 | 23.6 | 21.9 | 69.0 | 1021.3 | 0.2 | SE | 6.1 | SE | 0.0 | ||||||||
| 07:55 | 24.1 | 22.5 | 67.3 | 1021.3 | 1.0 | SSE | 8.8 | SW | 0.0 | ||||||||
| 08:00 | 24.5 | 23.0 | 66.1 | 1021.3 | 2.5 | ENE | 11.5 | NE | 0.0 | ||||||||
| 08:05 | 24.7 | 23.4 | 65.4 | 1021.3 | 4.5 | NE | 8.8 | N | 0.0 | ||||||||
| 08:10 | 25.1 | 24.0 | 64.3 | 1021.3 | 0.8 | ENE | 8.8 | NE | 0.0 | ||||||||
| 08:15 | 25.6 | 24.8 | 62.9 | 1021.3 | 1.7 | NNE | 8.8 | N | 0.0 | ||||||||
| 08:20 | 25.9 | 26.0 | 61.7 | 1021.3 | 0.1 | WNW | 3.4 | NW | 0.0 | ||||||||
| 08:25 | 26.5 | 27.3 | 59.8 | 1021.3 | 1.1 | WNW | 8.8 | NNW | 0.0 | ||||||||
| 08:30 | 26.9 | 28.4 | 58.6 | 1021.3 | 0.9 | ENE | 6.1 | ESE | 0.0 | ||||||||
| 08:35 | 26.9 | 28.7 | 58.0 | 1021.3 | 1.1 | ENE | 11.5 | ENE | 0.0 | ||||||||
| 08:40 | 27.0 | 29.4 | 57.6 | 1021.3 | 0.0 | NNE | 0.0 | NNW | 0.0 | ||||||||
| 08:45 | 27.3 | 30.5 | 56.5 | 1021.4 | 0.0 | NNE | 0.0 | WNW | 0.0 | ||||||||
| 08:50 | 27.8 | 31.7 | 54.6 | 1021.5 | 0.0 | NNE | 0.0 | SE | 0.0 | ||||||||
| 08:55 | 28.4 | 32.4 | 52.2 | 1021.5 | 0.0 | NNE | 0.0 | SSW | 0.0 | ||||||||
| 09:00 | 28.8 | 32.5 | 50.8 | 1021.4 | 0.0 | NNE | 0.0 | SW | 0.0 | ||||||||
| 09:05 | 29.2 | 33.1 | 49.2 | 1021.4 | 0.0 | NNE | 0.0 | ESE | 0.0 | ||||||||
| 09:10 | 29.3 | 33.8 | 47.9 | 1021.4 | 0.7 | ESE | 6.1 | E | 0.0 | ||||||||
| 09:15 | 29.2 | 33.8 | 47.3 | 1021.3 | 2.5 | NNW | 8.8 | NNW | 0.0 | ||||||||
| 09:20 | 29.2 | 33.6 | 46.9 | 1021.4 | 0.5 | NE | 8.8 | E | 0.0 | ||||||||
| 09:25 | 29.5 | 34.1 | 45.8 | 1021.4 | 2.0 | NNE | 8.8 | E | 0.0 | ||||||||
| 09:30 | 29.7 | 34.3 | 44.8 | 1021.5 | 1.8 | NW | 6.1 | WNW | 0.0 | ||||||||
| 09:35 | 29.7 | 35.2 | 44.3 | 1021.4 | 0.0 | NNE | 0.0 | NNW | 0.0 | ||||||||
| 09:40 | 30.3 | 35.2 | 43.7 | 1021.3 | 0.6 | SSE | 8.8 | S | 0.0 | ||||||||
| 09:45 | 30.6 | 34.9 | 42.2 | 1021.5 | 3.1 | SSE | 8.8 | SSE | 0.0 | ||||||||
| 09:50 | 30.4 | 35.3 | 42.1 | 1021.4 | 3.0 | SSW | 8.8 | S | 0.0 | ||||||||
| 09:55 | 30.8 | 35.5 | 41.3 | 1021.4 | 1.3 | SSW | 6.1 | SW | 0.0 | ||||||||
| 10:00 | 31.2 | 36.0 | 41.0 | 1021.4 | 0.0 | NNE | 0.0 | SSE | 0.0 | ||||||||
| 10:05 | 31.5 | 36.3 | 40.6 | 1021.3 | 3.0 | SSE | 11.5 | SE | 0.0 | ||||||||
| 10:10 | 31.7 | 36.3 | 40.4 | 1021.3 | 0.0 | NNE | 0.0 | SSW | 0.0 | ||||||||
| 10:15 | 31.6 | 36.0 | 40.2 | 1021.2 | 0.0 | NNE | 0.0 | SE | 0.0 | ||||||||
| 10:20 | 32.0 | 37.3 | 38.9 | 1021.3 | 0.0 | NNE | 0.0 | SSE | 0.0 | ||||||||
| 10:25 | 32.4 | 38.2 | 38.0 | 1021.2 | 2.0 | SSW | 14.2 | SW | 0.0 | ||||||||
| 10:30 | 32.4 | 37.4 | 37.7 | 1021.3 | 3.9 | SW | 11.5 | SW | 0.0 | ||||||||
| 10:35 | 32.3 | 36.8 | 37.9 | 1021.2 | 9.2 | SW | 19.6 | SSW | 0.0 | ||||||||
| 10:40 | 32.5 | 37.1 | 37.4 | 1021.1 | 8.2 | SSE | 16.9 | SE | 0.0 | ||||||||
| 10:45 | 32.5 | 36.6 | 36.6 | 1021.1 | 8.1 | SSE | 14.2 | ESE | 0.0 | ||||||||
| 10:50 | 32.6 | 36.8 | 34.8 | 1021.1 | 8.3 | SSW | 19.6 | SSW | 0.0 | ||||||||
| 10:55 | 32.4 | 36.2 | 33.9 | 1021.1 | 10.9 | SSE | 22.3 | SSE | 0.0 | ||||||||
| 11:00 | 32.2 | 35.9 | 33.0 | 1021.1 | 11.9 | SSE | 19.6 | SSE | 0.0 | ||||||||
| 11:05 | 32.3 | 36.2 | 32.2 | 1021.1 | 11.9 | SE | 25.0 | SE | 0.0 | ||||||||
| 11:10 | 32.4 | 36.4 | 31.7 | 1021.1 | 8.4 | SSE | 19.6 | SSE | 0.0 | ||||||||
| 11:15 | 32.9 | 37.0 | 30.6 | 1020.9 | 10.1 | S | 16.9 | S | 0.0 | ||||||||
| 11:20 | 33.2 | 37.3 | 30.0 | 1021.2 | 10.3 | SE | 19.6 | SSE | 0.0 | ||||||||
| 11:25 | 33.2 | 37.1 | 29.7 | 1021.0 | 9.9 | SSE | 19.6 | SSE | 0.0 | ||||||||
| 11:30 | 33.2 | 37.5 | 30.3 | 1020.9 | 10.3 | SSE | 19.6 | SE | 0.0 | ||||||||
| 11:35 | 33.1 | 37.3 | 31.3 | 1020.9 | 11.1 | SE | 22.3 | SE | 0.0 | ||||||||
| 11:40 | 33.1 | 37.3 | 32.1 | 1021.0 | 12.4 | SSE | 22.3 | SE | 0.0 | ||||||||
| 11:45 | 32.8 | 36.6 | 33.1 | 1020.9 | 12.0 | SSE | 25.0 | S | 0.0 | ||||||||
| 11:50 | 33.0 | 36.8 | 33.9 | 1020.9 | 13.4 | SSE | 25.0 | SSE | 0.0 | ||||||||
| 11:55 | 32.8 | 36.7 | 35.0 | 1021.1 | 13.5 | SSE | 25.0 | SSE | 0.0 | ||||||||
| 12:00 | 32.8 | 36.5 | 35.7 | 1021.0 | 15.7 | SSE | 30.4 | S | 0.0 | ||||||||
| 12:05 | 32.2 | 35.8 | 36.8 | 1021.0 | 15.5 | SSE | 30.4 | SSE | 0.0 | ||||||||
| 12:10 | 32.0 | 35.5 | 37.0 | 1020.9 | 14.1 | SSE | 25.0 | SSE | 0.0 | ||||||||
| 12:15 | 31.8 | 35.2 | 37.1 | 1021.1 | 18.7 | SSE | 30.4 | SSE | 0.0 | ||||||||
| 12:20 | 31.6 | 35.2 | 37.7 | 1021.0 | 13.7 | SSE | 25.0 | SSE | 0.0 | ||||||||
| 12:25 | 31.7 | 35.5 | 37.4 | 1021.2 | 15.1 | SSE | 30.4 | SSE | 0.0 | ||||||||
| 12:30 | 31.4 | 34.8 | 37.8 | 1021.2 | 14.8 | SSE | 27.7 | SE | 0.0 | ||||||||
| 12:35 | 31.7 | 35.5 | 37.6 | 1021.2 | 14.9 | SE | 27.7 | E | 0.0 | ||||||||
| 12:40 | 31.8 | 35.5 | 37.5 | 1021.1 | 12.7 | SE | 30.4 | SSE | 0.0 | ||||||||
| 12:45 | 31.6 | 35.2 | 37.8 | 1021.1 | 12.7 | SSE | 27.7 | SE | 0.0 | ||||||||
| 12:50 | 31.8 | 35.5 | 37.8 | 1021.0 | 14.5 | SE | 30.4 | SE | 0.0 | ||||||||
| 12:55 | 31.3 | 34.4 | 38.6 | 1021.3 | 18.0 | SSE | 33.1 | SSE | 0.0 | ||||||||
| 13:00 | 31.1 | 34.6 | 39.3 | 1021.1 | 16.0 | SSE | 27.7 | SSE | 0.0 | ||||||||
| 13:05 | 31.1 | 34.5 | 39.2 | 1021.2 | 15.5 | SSE | 25.0 | SSE | 0.0 | ||||||||
| 13:10 | 31.0 | 34.3 | 39.5 | 1021.1 | 14.6 | SE | 27.7 | SE | 0.0 | ||||||||
| 13:15 | 31.2 | 34.7 | 39.3 | 1021.3 | 12.4 | SSE | 25.0 | S | 0.0 | ||||||||
| 13:20 | 31.4 | 34.9 | 38.6 | 1021.1 | 16.2 | SSE | 27.7 | SE | 0.0 | ||||||||
| 13:25 | 31.0 | 34.6 | 39.4 | 1021.0 | 13.0 | SE | 25.0 | ESE | 0.0 | ||||||||
| 13:30 | 31.2 | 34.4 | 38.7 | 1021.2 | 15.8 | SSE | 30.4 | SSE | 0.0 | ||||||||
| 13:35 | 31.3 | 34.7 | 38.8 | 1021.0 | 15.3 | SE | 27.7 | SSE | 0.0 | ||||||||
| 13:40 | 31.0 | 34.4 | 39.2 | 1020.9 | 10.2 | SSE | 25.0 | S | 0.0 | ||||||||
| 13:45 | 31.0 | 34.2 | 39.2 | 1021.0 | 13.7 | SSE | 30.4 | SE | 0.0 | ||||||||
| 13:50 | 30.9 | 34.1 | 39.7 | 1021.0 | 13.6 | SSE | 27.7 | SSE | 0.0 | ||||||||
| 13:55 | 31.0 | 33.8 | 39.6 | 1020.9 | 14.8 | SSE | 25.0 | SE | 0.0 | ||||||||
| 14:00 | 30.9 | 34.1 | 40.0 | 1020.9 | 13.6 | SE | 27.7 | SSE | 0.0 | ||||||||
| 14:05 | 30.8 | 34.0 | 40.5 | 1020.9 | 13.0 | SSE | 27.7 | SE | 0.0 | ||||||||
| 14:10 | 30.8 | 33.8 | 40.5 | 1021.0 | 14.4 | SSE | 30.4 | SE | 0.0 | ||||||||
| 14:15 | 30.7 | 33.7 | 40.9 | 1020.9 | 14.1 | SE | 25.0 | SSE | 0.0 | ||||||||
| 14:20 | 30.8 | 33.6 | 40.6 | 1020.7 | 12.8 | SSE | 22.3 | SSE | 0.0 | ||||||||
| 14:25 | 30.4 | 33.0 | 41.3 | 1020.7 | 13.8 | SSE | 27.7 | SE | 0.0 | ||||||||
| 14:30 | 30.8 | 33.8 | 40.6 | 1020.6 | 11.2 | SE | 27.7 | S | 0.0 | ||||||||
| 14:35 | 31.2 | 34.6 | 40.0 | 1020.6 | 12.2 | SSE | 25.0 | SE | 0.0 | ||||||||
| 14:40 | 31.0 | 33.9 | 40.5 | 1020.7 | 15.1 | SSE | 25.0 | SSE | 0.0 | ||||||||
| 14:45 | 30.7 | 33.5 | 41.0 | 1020.5 | 13.6 | SSE | 30.4 | ESE | 0.0 | ||||||||
| 14:50 | 30.8 | 33.6 | 41.1 | 1020.5 | 10.4 | SE | 22.3 | SSE | 0.0 | ||||||||
| 14:55 | 30.6 | 32.9 | 41.0 | 1020.5 | 13.5 | SSE | 22.3 | SE | 0.0 | ||||||||
| 15:00 | 30.3 | 32.7 | 41.4 | 1020.5 | 16.4 | SSE | 27.7 | S | 0.0 | ||||||||
| 15:05 | 30.0 | 32.6 | 42.1 | 1020.5 | 15.8 | SSE | 27.7 | SSE | 0.0 | ||||||||
| 15:10 | 30.5 | 33.3 | 41.6 | 1020.5 | 11.8 | SSE | 25.0 | SSE | 0.0 | ||||||||
| 15:15 | 30.6 | 33.2 | 41.3 | 1020.5 | 11.8 | SE | 22.3 | SSE | 0.0 | ||||||||
| 15:20 | 30.6 | 32.9 | 42.0 | 1020.5 | 13.8 | SSE | 25.0 | SSE | 0.0 | ||||||||
| 15:25 | 30.1 | 32.7 | 43.6 | 1020.5 | 10.8 | SSE | 25.0 | SE | 0.0 | ||||||||
| 15:30 | 30.2 | 32.6 | 43.8 | 1020.5 | 14.9 | SSE | 25.0 | S | 0.0 | ||||||||
| 15:35 | 29.9 | 32.1 | 44.6 | 1020.5 | 13.7 | SE | 27.7 | SE | 0.0 | ||||||||
| 15:40 | 30.2 | 32.7 | 44.2 | 1020.5 | 11.1 | SSE | 22.3 | SSE | 0.0 | ||||||||
| 15:45 | 30.2 | 32.5 | 44.3 | 1020.5 | 13.2 | SSE | 27.7 | ESE | 0.0 | ||||||||
| 15:50 | 30.1 | 32.2 | 44.6 | 1020.6 | 10.4 | S | 22.3 | S | 0.0 | ||||||||
| 15:55 | 29.5 | 31.3 | 45.7 | 1020.5 | 14.4 | SSE | 25.0 | SE | 0.0 | ||||||||
| 16:00 | 29.3 | 31.0 | 46.7 | 1020.5 | 13.7 | SSE | 25.0 | SE | 0.0 | ||||||||
| 16:05 | 29.1 | 30.3 | 47.3 | 1020.5 | 14.3 | SSE | 30.4 | SSE | 0.0 | ||||||||
| 16:10 | 28.9 | 30.1 | 48.1 | 1020.5 | 11.7 | S | 22.3 | SSE | 0.0 | ||||||||
| 16:15 | 29.0 | 30.4 | 48.2 | 1020.5 | 13.5 | SE | 27.7 | SE | 0.0 | ||||||||
| 16:20 | 28.8 | 30.0 | 48.7 | 1020.5 | 14.0 | SE | 25.0 | SE | 0.0 | ||||||||
| 16:25 | 28.8 | 30.0 | 48.9 | 1020.5 | 10.5 | SSE | 19.6 | SSE | 0.0 | ||||||||
| 16:30 | 28.6 | 29.6 | 48.7 | 1020.5 | 12.9 | SE | 22.3 | SE | 0.0 | ||||||||
| 16:35 | 28.5 | 29.4 | 49.2 | 1020.5 | 12.4 | SSE | 25.0 | ESE | 0.0 | ||||||||
| 16:40 | 28.4 | 29.5 | 49.6 | 1020.5 | 11.4 | SSE | 19.6 | S | 0.0 | ||||||||
| 16:45 | 28.3 | 29.2 | 50.3 | 1020.6 | 12.3 | SSE | 22.3 | ESE | 0.0 | ||||||||
| 16:50 | 27.9 | 28.5 | 51.1 | 1020.6 | 10.4 | S | 22.3 | SSE | 0.0 | ||||||||
| 16:55 | 27.9 | 28.5 | 50.7 | 1020.6 | 7.9 | SSW | 19.6 | S | 0.0 | ||||||||
| 17:00 | 27.8 | 28.4 | 51.0 | 1020.6 | 9.7 | SSE | 19.6 | S | 0.0 | ||||||||
| 17:05 | 27.7 | 28.7 | 51.4 | 1020.6 | 9.2 | SSE | 16.9 | SE | 0.0 | ||||||||
| 17:10 | 27.8 | 28.7 | 51.2 | 1020.6 | 9.0 | SSE | 19.6 | SSE | 0.0 | ||||||||
| 17:15 | 27.8 | 28.8 | 50.9 | 1020.6 | 10.0 | SSE | 19.6 | SE | 0.0 | ||||||||
| 17:20 | 27.6 | 28.2 | 51.1 | 1020.6 | 6.3 | SSE | 14.2 | SSE | 0.0 | ||||||||
| 17:25 | 27.5 | 27.7 | 51.3 | 1020.6 | 6.7 | SSE | 14.2 | SSE | 0.0 | ||||||||
| 17:30 | 27.3 | 27.2 | 51.8 | 1020.7 | 7.7 | SSE | 14.2 | S | 0.0 | ||||||||
| 17:35 | 27.0 | 26.7 | 52.3 | 1020.7 | 7.3 | SSE | 16.9 | S | 0.0 | ||||||||
| 17:40 | 26.9 | 26.5 | 52.5 | 1020.8 | 2.7 | S | 11.5 | S | 0.0 | ||||||||
| 17:45 | 26.8 | 26.2 | 52.7 | 1020.8 | 2.3 | SSE | 11.5 | SSW | 0.0 | ||||||||
| 17:50 | 26.6 | 25.9 | 52.9 | 1020.8 | 6.9 | SSE | 14.2 | S | 0.0 | ||||||||
| 17:55 | 26.5 | 25.7 | 53.3 | 1020.8 | 3.8 | SSE | 11.5 | SSE | 0.0 | ||||||||
| 18:00 | 26.4 | 25.6 | 53.5 | 1020.8 | 4.7 | SSE | 8.8 | SSE | 0.0 | ||||||||
| 18:05 | 26.3 | 25.4 | 53.9 | 1020.9 | 7.0 | SSE | 14.2 | SSE | 0.0 | ||||||||
| 18:10 | 26.1 | 25.2 | 54.5 | 1020.9 | 4.8 | SSE | 14.2 | SSE | 0.0 | ||||||||
| Màxima | 33.2 | 38.2 | 92.2 | 1021.5 | 18.7 | SSE | 33.1 | SSE | 0.0 | ||||||||
| Mínima | 17.1 | 15.6 | 29.7 | 1020.4 | |||||||||||||
| Total | 0.0 | ||||||||||||||||